createdAt,value
2023-02-27T00:02:40.313Z,102418.47
2023-02-27T00:05:26.106Z,102416.81
2023-02-27T00:08:11.829Z,102428.94
2023-02-27T00:10:59.252Z,102429.88
2023-02-27T00:13:45.321Z,102440.28
2023-02-27T00:16:31.085Z,102436.88
2023-02-27T00:19:17.005Z,102443.81
2023-02-27T00:22:02.742Z,102449.06
2023-02-27T00:24:48.770Z,102456.97
2023-02-27T00:27:36.914Z,102464.84
2023-02-27T00:30:23.207Z,102472.63
2023-02-27T00:33:09.297Z,102477.81
2023-02-27T00:35:58.247Z,102496.09
2023-02-27T00:38:43.985Z,102495.22
2023-02-27T00:41:29.829Z,102492.63
2023-02-27T00:44:18.189Z,102496.13
2023-02-27T00:47:05.019Z,102499.69
2023-02-27T00:49:51.669Z,102501.47
2023-02-27T00:52:37.307Z,102504.94
2023-02-27T00:55:22.901Z,102494.59
2023-02-27T00:58:08.623Z,102499.78
2023-02-27T01:00:55.871Z,102503.25
2023-02-27T01:03:42.244Z,102504.16
2023-02-27T01:06:29.899Z,102513.69
2023-02-27T01:09:15.673Z,102510.22
2023-02-27T01:12:01.481Z,102510.28
2023-02-27T01:14:48.272Z,102884.44
2023-02-27T01:17:38.119Z,102887.94
2023-02-27T01:20:23.988Z,102887.06
2023-02-27T01:23:09.839Z,102882.75
2023-02-27T01:25:55.898Z,102896.59
2023-02-27T01:28:41.556Z,102877.59
2023-02-27T01:31:27.642Z,102881.06
2023-02-27T01:34:15.519Z,102879.34
2023-02-27T01:37:01.199Z,102874.16
2023-02-27T01:39:47.081Z,102867.22
2023-02-27T01:42:32.829Z,102870.72
2023-02-27T01:45:26.221Z,102879.38
2023-02-27T01:48:13.604Z,102882.00
2023-02-27T01:51:01.696Z,102875.06
2023-02-27T01:53:47.936Z,102870.75
2023-02-27T01:56:33.752Z,102878.53
2023-02-27T01:59:19.534Z,102879.38
2023-02-27T02:02:11.658Z,102877.66
2023-02-27T02:04:57.917Z,102876.81
2023-02-27T02:07:45.957Z,102879.44
2023-02-27T02:10:31.999Z,102867.34
2023-02-27T02:13:17.967Z,102872.50
2023-02-27T02:16:09.224Z,102872.50
2023-02-27T02:18:57.623Z,102866.50
2023-02-27T02:22:01.869Z,102870.78
2023-02-27T02:25:02.538Z,102868.19
2023-02-27T02:27:53.504Z,102866.50
2023-02-27T02:30:47.849Z,102875.16
2023-02-27T02:33:43.310Z,102875.16
2023-02-27T02:36:47.486Z,102881.22
2023-02-27T02:39:47.251Z,102884.69
2023-02-27T02:42:34.056Z,102883.81
2023-02-27T02:45:22.900Z,102889.88
2023-02-27T02:48:10.443Z,102893.31
2023-02-27T02:50:57.901Z,102884.69
2023-02-27T02:53:46.266Z,102895.91
2023-02-27T02:56:35.810Z,102905.44
2023-02-27T02:59:23.326Z,102901.97
2023-02-27T03:02:10.159Z,102906.28
2023-02-27T03:04:57.261Z,102905.44
2023-02-27T03:07:44.174Z,102914.94
2023-02-27T03:10:31.310Z,102921.00
2023-02-27T03:13:20.286Z,102930.53
2023-02-27T03:16:07.978Z,102929.66
2023-02-27T03:18:54.333Z,102939.16
2023-02-27T03:21:42.399Z,102944.34
2023-02-27T03:24:29.021Z,102959.91
2023-02-27T03:27:15.532Z,102971.16
2023-02-27T03:30:04.921Z,102981.53
2023-02-27T03:32:53.685Z,102988.47
2023-02-27T03:35:42.300Z,102997.97
2023-02-27T03:38:31.669Z,103001.44
2023-02-27T03:41:19.460Z,103015.25
2023-02-27T03:44:15.150Z,103017.84
2023-02-27T03:47:02.223Z,103022.19
2023-02-27T03:49:50.988Z,103029.97
2023-02-27T03:52:37.511Z,103038.59
2023-02-27T03:55:25.232Z,103050.72
2023-02-27T03:58:11.981Z,103061.13
2023-02-27T04:00:58.114Z,103074.97
2023-02-27T04:03:47.248Z,103085.34
2023-02-27T04:06:55.548Z,103092.28
2023-02-27T04:09:44.879Z,103093.13
2023-02-27T04:12:35.918Z,103113.03
2023-02-27T04:15:24.031Z,103117.41
2023-02-27T04:18:12.668Z,103129.50
2023-02-27T04:21:00.491Z,103145.09
2023-02-27T04:23:47.385Z,103155.47
2023-02-27T04:26:34.050Z,103167.63
2023-02-27T04:29:21.420Z,103176.25
2023-02-27T04:32:08.033Z,103179.72
2023-02-27T04:34:54.792Z,103202.22
2023-02-27T04:37:45.616Z,103198.75
2023-02-27T04:40:33.440Z,103206.56
2023-02-27T04:43:19.501Z,103208.31
2023-02-27T04:46:05.718Z,103218.72
2023-02-27T04:48:53.134Z,103225.63
2023-02-27T04:51:40.068Z,103231.66
2023-02-27T04:54:27.916Z,103234.28
2023-02-27T04:57:15.035Z,103242.94
2023-02-27T05:00:00.873Z,103245.53
2023-02-27T05:02:48.008Z,103250.72
2023-02-27T05:05:34.432Z,103244.66
2023-02-27T05:08:21.611Z,103252.44
2023-02-27T05:11:10.377Z,103254.19
2023-02-27T05:13:56.366Z,103256.81
2023-02-27T05:16:42.807Z,103267.22
2023-02-27T05:19:28.617Z,103276.72
2023-02-27T05:22:21.697Z,103273.28
2023-02-27T05:25:09.706Z,103271.53
2023-02-27T05:27:57.879Z,103276.75
2023-02-27T05:30:44.399Z,103275.88
2023-02-27T05:33:31.577Z,103279.34
2023-02-27T05:36:18.343Z,103284.56
2023-02-27T05:39:05.389Z,103279.34
2023-02-27T05:41:51.532Z,103284.56
2023-02-27T05:44:40.104Z,103289.78
2023-02-27T05:47:26.927Z,103285.41
2023-02-27T05:50:13.606Z,103286.28
2023-02-27T05:53:00.286Z,103290.63
2023-02-27T05:55:47.392Z,103291.47
2023-02-27T05:58:34.072Z,103296.66
2023-02-27T06:01:21.408Z,103307.09
2023-02-27T06:04:07.152Z,103309.69
2023-02-27T06:06:53.275Z,103317.47
2023-02-27T06:09:38.975Z,103319.19
2023-02-27T06:12:25.298Z,103322.66
2023-02-27T06:15:13.908Z,103332.19
2023-02-27T06:18:01.166Z,103335.66
2023-02-27T06:20:47.448Z,103340.84
2023-02-27T06:23:33.391Z,103349.50
2023-02-27T06:26:19.343Z,103354.72
2023-02-27T06:29:05.368Z,103352.97
2023-02-27T06:31:51.361Z,103356.44
2023-02-27T06:34:38.426Z,103357.28
2023-02-27T06:37:24.171Z,103353.81
2023-02-27T06:40:12.219Z,103365.06
2023-02-27T06:42:58.156Z,103365.91
2023-02-27T06:45:44.011Z,103362.44
2023-02-27T06:48:29.802Z,103359.84
2023-02-27T06:51:16.889Z,103372.81
2023-02-27T06:54:02.710Z,103387.53
2023-02-27T06:56:48.834Z,103384.09
2023-02-27T06:59:34.858Z,103395.34
2023-02-27T07:02:20.823Z,103398.81
2023-02-27T07:05:08.164Z,103401.41
2023-02-27T07:07:58.362Z,103392.69
2023-02-27T07:10:46.914Z,103398.78
2023-02-27T07:13:32.895Z,103388.31
2023-02-27T07:16:18.719Z,103393.50
2023-02-27T07:19:04.631Z,103398.69
2023-02-27T07:21:50.780Z,103399.56
2023-02-27T07:24:37.816Z,103400.44
2023-02-27T07:27:23.555Z,103398.69
2023-02-27T07:30:09.894Z,103400.41
2023-02-27T07:32:55.518Z,103394.31
2023-02-27T07:35:41.293Z,103398.66
2023-02-27T07:38:28.768Z,103399.50
2023-02-27T07:41:29.655Z,103397.75
2023-02-27T07:44:18.601Z,103394.28
2023-02-27T07:47:04.435Z,103397.75
2023-02-27T07:49:50.237Z,103388.16
2023-02-27T07:52:36.108Z,103389.91
2023-02-27T07:55:21.851Z,103381.19
2023-02-27T07:58:09.216Z,103375.94
2023-02-27T08:00:55.180Z,103365.47
2023-02-27T08:03:41.342Z,103369.81
2023-02-27T08:06:27.441Z,103362.84
2023-02-27T08:09:13.284Z,103361.97
2023-02-27T08:11:59.255Z,103352.38
2023-02-27T08:14:46.442Z,103343.66
2023-02-27T08:17:32.164Z,103343.63
2023-02-27T08:20:18.908Z,103337.53
2023-02-27T08:23:04.984Z,103328.81
2023-02-27T08:25:50.808Z,103327.06
2023-02-27T08:28:36.661Z,103324.44
2023-02-27T08:31:23.761Z,103322.66
2023-02-27T08:34:10.932Z,103318.25
2023-02-27T08:36:56.773Z,103314.75
2023-02-27T08:39:42.532Z,103321.69
2023-02-27T08:42:28.511Z,103316.38
2023-02-27T08:45:14.740Z,103322.38
2023-02-27T08:48:02.272Z,103315.31
2023-02-27T08:50:48.425Z,103318.72
2023-02-27T08:53:34.248Z,103309.13
2023-02-27T08:56:19.964Z,103300.34
2023-02-27T08:59:05.773Z,103307.19
2023-02-27T09:01:51.621Z,103307.13
2023-02-27T09:04:38.814Z,103296.56
2023-02-27T09:07:24.676Z,103299.06
2023-02-27T09:10:11.083Z,103286.72
2023-02-27T09:12:56.991Z,103268.28
2023-02-27T09:15:43.025Z,103262.00
2023-02-27T09:18:29.131Z,103250.47
2023-02-27T09:21:17.093Z,103242.38
2023-02-27T09:24:17.172Z,103238.69
2023-02-27T09:27:05.220Z,103232.50
2023-02-27T09:29:55.270Z,103220.72
2023-02-27T09:32:41.654Z,103208.97
2023-02-27T09:35:28.027Z,103200.63
2023-02-27T09:38:15.311Z,103181.75
2023-02-27T09:41:01.481Z,103163.63
2023-02-27T09:43:48.485Z,103147.31
2023-02-27T09:46:34.575Z,103119.59
2023-02-27T09:49:21.028Z,103092.75
2023-02-27T09:52:06.915Z,103066.16
2023-02-27T09:54:55.085Z,103027.16
2023-02-27T09:57:43.725Z,102982.28
2023-02-27T10:00:36.919Z,102926.66
2023-02-27T10:03:26.186Z,102873.97
2023-02-27T10:06:16.321Z,102823.81
2023-02-27T10:09:05.734Z,102756.72
2023-02-27T10:11:55.919Z,102709.88
2023-02-27T10:14:42.996Z,102641.75
2023-02-27T10:17:29.313Z,102570.00
2023-02-27T10:20:21.329Z,102517.63
2023-02-27T10:23:07.856Z,102461.47
2023-02-27T10:25:53.593Z,102418.22
2023-02-27T10:28:40.657Z,102376.72
2023-02-27T10:31:27.430Z,102363.47
2023-02-27T10:34:14.802Z,102334.94
2023-02-27T10:37:01.742Z,102320.38
2023-02-27T10:39:48.915Z,102341.19
2023-02-27T10:42:36.078Z,102349.63
2023-02-27T10:45:23.174Z,102357.34
2023-02-27T10:48:09.055Z,102356.88
2023-02-27T10:50:55.991Z,102363.06
2023-02-27T10:53:41.994Z,102373.81
2023-02-27T10:56:28.145Z,102380.50
2023-02-27T10:59:18.513Z,102387.34
2023-02-27T11:02:05.962Z,102382.16
2023-02-27T11:04:53.821Z,102387.88
2023-02-27T11:07:40.362Z,102382.34
2023-02-27T11:10:26.721Z,102370.88
2023-02-27T11:13:21.426Z,102371.44
2023-02-27T11:16:17.319Z,102371.69
2023-02-27T11:19:05.008Z,102370.06
2023-02-27T11:22:00.529Z,102372.28
2023-02-27T11:24:46.372Z,102354.38
2023-02-27T11:27:33.419Z,102358.16
2023-02-27T11:30:24.767Z,102365.59
2023-02-27T11:33:13.437Z,102363.31
2023-02-27T11:36:00.811Z,102366.56
2023-02-27T11:38:51.195Z,102356.16
2023-02-27T11:41:37.745Z,102362.97
2023-02-27T11:44:50.305Z,102361.66
2023-02-27T11:47:33.341Z,102363.22
2023-02-27T11:50:34.679Z,102374.84
2023-02-27T11:53:29.304Z,102377.06
2023-02-27T11:56:16.001Z,102389.06
2023-02-27T11:59:02.373Z,102390.03
2023-02-27T12:01:49.572Z,102389.34
2023-02-27T12:04:41.310Z,102382.91
2023-02-27T12:07:27.538Z,102385.97
2023-02-27T12:10:17.106Z,102387.41
2023-02-27T12:13:04.024Z,102384.50
2023-02-27T12:15:51.343Z,102388.31
2023-02-27T12:18:39.122Z,102389.75
2023-02-27T12:21:25.823Z,102402.91
2023-02-27T12:24:15.308Z,102389.16
2023-02-27T12:27:06.698Z,102398.25
2023-02-27T12:29:53.228Z,102387.94
2023-02-27T12:32:40.555Z,102375.78
2023-02-27T12:35:27.512Z,102382.25
2023-02-27T12:38:14.708Z,102375.06
2023-02-27T12:41:03.295Z,102381.16
2023-02-27T12:43:51.578Z,102384.81
2023-02-27T12:46:40.597Z,102379.22
2023-02-27T12:49:30.000Z,102385.38
2023-02-27T12:52:18.514Z,102386.31
2023-02-27T12:55:07.015Z,102386.84
2023-02-27T12:58:05.332Z,102391.72
2023-02-27T13:00:53.704Z,102390.44
2023-02-27T13:03:40.306Z,102390.66
2023-02-27T13:06:27.739Z,102393.41
2023-02-27T13:09:16.275Z,102391.25
2023-02-27T13:12:04.928Z,102379.59
2023-02-27T13:14:51.048Z,102379.63
2023-02-27T13:17:39.021Z,102377.28
2023-02-27T13:20:27.765Z,102389.63
2023-02-27T13:23:15.049Z,102387.63
2023-02-27T13:26:00.935Z,102372.94
2023-02-27T13:28:46.712Z,102383.22
2023-02-27T13:31:34.930Z,102375.53
2023-02-27T13:34:23.674Z,102378.28
2023-02-27T13:37:09.935Z,102375.22
2023-02-27T13:40:01.197Z,102372.81
2023-02-27T13:42:54.919Z,102368.03
2023-02-27T13:45:48.190Z,102365.19
2023-02-27T13:48:39.905Z,102367.03
2023-02-27T13:51:43.030Z,102364.47
2023-02-27T13:54:29.892Z,102370.16
2023-02-27T13:57:25.201Z,102371.50
2023-02-27T14:00:17.767Z,102365.53
2023-02-27T14:03:05.594Z,102371.81
2023-02-27T14:05:51.666Z,102349.91
2023-02-27T14:08:40.687Z,102356.06
2023-02-27T14:11:27.461Z,102356.72
2023-02-27T14:14:35.434Z,102353.31
2023-02-27T14:17:36.183Z,102357.06
2023-02-27T14:20:37.243Z,102352.16
2023-02-27T14:23:23.214Z,102348.03
2023-02-27T14:26:15.477Z,102349.16
2023-02-27T14:29:01.668Z,102358.06
2023-02-27T14:31:47.693Z,102359.03
2023-02-27T14:34:33.405Z,102357.06
2023-02-27T14:37:23.091Z,102359.81
2023-02-27T14:40:28.051Z,102364.44
2023-02-27T14:43:20.818Z,102356.78
2023-02-27T14:46:07.867Z,102355.47
2023-02-27T14:48:54.264Z,102367.00
2023-02-27T14:51:40.448Z,102351.66
2023-02-27T14:54:26.596Z,102349.13
2023-02-27T14:57:15.329Z,102362.00
2023-02-27T15:00:02.445Z,102362.69
2023-02-27T15:02:48.655Z,102359.09
2023-02-27T15:05:35.131Z,102359.63
2023-02-27T15:08:22.115Z,102352.56
2023-02-27T15:11:08.106Z,102360.97
2023-02-27T15:13:57.098Z,102364.38
2023-02-27T15:16:44.609Z,102359.56
2023-02-27T15:19:31.109Z,102359.72
2023-02-27T15:22:21.362Z,102360.34
2023-02-27T15:25:26.578Z,102368.25
2023-02-27T15:28:16.798Z,102362.69
2023-02-27T15:31:02.779Z,102362.09
2023-02-27T15:33:50.016Z,102363.16
2023-02-27T15:36:36.036Z,102358.97
2023-02-27T15:39:22.502Z,102359.72
2023-02-27T15:42:09.021Z,102351.34
2023-02-27T15:44:54.806Z,102360.63
2023-02-27T15:47:42.339Z,102360.34
2023-02-27T15:50:32.565Z,102361.88
2023-02-27T15:53:19.180Z,102361.38
2023-02-27T15:56:06.072Z,102364.22
2023-02-27T15:58:54.330Z,102367.41
2023-02-27T16:01:40.857Z,102365.38
2023-02-27T16:04:26.909Z,102371.28
2023-02-27T16:07:16.534Z,102372.22
2023-02-27T16:10:04.731Z,102366.72
2023-02-27T16:12:50.754Z,102374.28
2023-02-27T16:15:38.182Z,102378.03
2023-02-27T16:18:27.221Z,102385.31
2023-02-27T16:21:13.757Z,102372.94
2023-02-27T16:24:14.639Z,102380.91
2023-02-27T16:27:02.301Z,102381.13
2023-02-27T16:29:48.841Z,102383.59
2023-02-27T16:32:35.792Z,102388.47
2023-02-27T16:35:22.221Z,102385.84
2023-02-27T16:38:09.627Z,102384.56
2023-02-27T16:40:55.660Z,102384.25
2023-02-27T16:43:43.265Z,102377.34
2023-02-27T16:46:30.931Z,102380.28
2023-02-27T16:49:20.263Z,102380.63
2023-02-27T16:52:07.210Z,102370.91
2023-02-27T16:54:53.458Z,102383.56
2023-02-27T16:57:39.214Z,102388.44
2023-02-27T17:00:26.973Z,102397.00
2023-02-27T17:03:13.265Z,102388.47
2023-02-27T17:05:59.167Z,102393.16
2023-02-27T17:08:44.895Z,102401.41
2023-02-27T17:11:30.654Z,102396.41
2023-02-27T17:14:17.059Z,102394.94
2023-02-27T17:17:04.521Z,102396.97
2023-02-27T17:19:50.549Z,102392.09
2023-02-27T17:22:36.904Z,102401.22
2023-02-27T17:25:22.674Z,102406.72
2023-02-27T17:28:08.688Z,102406.16
2023-02-27T17:30:54.658Z,102407.13
2023-02-27T17:33:42.006Z,102410.28
2023-02-27T17:36:30.868Z,102411.19
2023-02-27T17:39:17.541Z,102410.75
2023-02-27T17:42:03.448Z,102405.41
2023-02-27T17:44:49.501Z,102414.34
2023-02-27T17:47:35.573Z,102417.94
2023-02-27T17:50:22.648Z,102420.56
2023-02-27T17:53:09.618Z,102419.84
2023-02-27T17:55:55.750Z,102422.53
2023-02-27T17:58:45.236Z,102422.63
2023-02-27T18:01:31.149Z,102428.00
2023-02-27T18:04:17.803Z,102420.19
2023-02-27T18:07:04.931Z,102418.38
2023-02-27T18:09:50.617Z,102419.44
2023-02-27T18:12:36.571Z,102416.81
2023-02-27T18:15:23.773Z,102422.88
2023-02-27T18:18:09.633Z,102416.81
2023-02-27T18:21:01.895Z,102417.69
2023-02-27T18:23:49.797Z,102408.97
2023-02-27T18:26:35.704Z,102410.78
2023-02-27T18:29:21.762Z,102418.66
2023-02-27T18:32:08.403Z,102421.25
2023-02-27T18:34:54.408Z,102411.72
2023-02-27T18:37:40.539Z,102410.13
2023-02-27T18:40:27.719Z,102419.75
2023-02-27T18:43:14.304Z,102419.84
2023-02-27T18:46:00.480Z,102427.72
2023-02-27T18:48:46.390Z,102421.69
2023-02-27T18:51:32.199Z,102428.78
2023-02-27T18:54:17.907Z,102427.13
2023-02-27T18:57:05.920Z,102435.00
2023-02-27T18:59:51.677Z,102437.63
2023-02-27T19:02:41.611Z,102435.88
2023-02-27T19:05:28.047Z,102445.56
2023-02-27T19:08:14.063Z,102439.50
2023-02-27T19:11:00.165Z,102439.63
2023-02-27T19:13:47.662Z,102451.00
2023-02-27T19:16:33.944Z,102450.22
2023-02-27T19:19:20.213Z,102452.03
2023-02-27T19:22:06.245Z,102454.66
2023-02-27T19:24:51.807Z,102459.13
2023-02-27T19:27:37.938Z,102467.84
2023-02-27T19:30:25.714Z,102464.44
2023-02-27T19:33:11.821Z,102465.31
2023-02-27T19:35:57.735Z,102466.22
2023-02-27T19:38:43.692Z,102475.88
2023-02-27T19:41:32.401Z,102471.66
2023-02-27T19:44:19.526Z,102482.34
2023-02-27T19:47:06.794Z,102477.22
2023-02-27T19:49:52.801Z,102482.63
2023-02-27T19:52:38.735Z,102481.09
2023-02-27T19:55:24.501Z,102478.69
2023-02-27T19:58:10.196Z,102491.94
2023-02-27T20:00:56.418Z,102488.72
2023-02-27T20:03:44.078Z,102486.34
2023-02-27T20:06:31.016Z,102488.25
2023-02-27T20:09:17.736Z,102488.41
2023-02-27T20:12:03.864Z,102493.78
2023-02-27T20:14:50.138Z,102486.94
2023-02-27T20:17:36.176Z,102496.72
2023-02-27T20:20:23.141Z,102500.31
2023-02-27T20:23:09.085Z,102514.47
2023-02-27T20:25:54.888Z,102521.50
2023-02-27T20:28:40.912Z,102519.03
2023-02-27T20:31:28.520Z,102530.44
2023-02-27T20:34:15.877Z,102531.38
2023-02-27T20:37:03.139Z,102534.09
2023-02-27T20:39:49.327Z,102537.69
2023-02-27T20:42:36.337Z,102544.75
2023-02-27T20:45:22.141Z,102548.28
2023-02-27T20:48:08.210Z,102556.22
2023-02-27T20:50:53.964Z,102556.25
2023-02-27T20:53:41.429Z,102557.19
2023-02-27T20:56:27.990Z,102569.47
2023-02-27T20:59:14.600Z,102576.47
2023-02-27T21:02:00.292Z,102580.94
2023-02-27T21:04:47.264Z,102582.59
2023-02-27T21:07:33.653Z,102587.00
2023-02-27T21:10:20.841Z,102603.72
2023-02-27T21:13:06.724Z,102602.78
2023-02-27T21:15:52.543Z,102608.06
2023-02-27T21:18:38.976Z,102602.81
2023-02-27T21:21:26.178Z,102608.88
2023-02-27T21:24:12.289Z,102618.47
2023-02-27T21:26:59.353Z,102626.34
2023-02-27T21:29:45.083Z,102617.66
2023-02-27T21:32:30.811Z,102626.38
2023-02-27T21:35:16.620Z,102631.66
2023-02-27T21:38:02.449Z,102635.19
2023-02-27T21:40:48.204Z,102641.38
2023-02-27T21:43:35.576Z,102646.66
2023-02-27T21:46:21.602Z,102640.69
2023-02-27T21:49:07.340Z,102653.88
2023-02-27T21:51:53.224Z,102653.94
2023-02-27T21:54:39.220Z,102646.25
2023-02-27T21:57:25.159Z,102648.09
2023-02-27T22:00:13.450Z,102650.78
2023-02-27T22:02:59.408Z,102652.66
2023-02-27T22:05:45.190Z,102659.72
2023-02-27T22:08:30.943Z,102663.31
2023-02-27T22:11:16.573Z,102651.25
2023-02-27T22:14:02.560Z,102652.22
2023-02-27T22:16:49.915Z,102648.78
2023-02-27T22:19:36.017Z,102648.06
2023-02-27T22:22:21.679Z,102658.56
2023-02-27T22:25:07.839Z,102670.94
2023-02-27T22:27:53.625Z,102668.31
2023-02-27T22:30:39.571Z,102669.22
2023-02-27T22:33:27.061Z,102678.78
2023-02-27T22:36:14.563Z,102677.97
2023-02-27T22:39:00.773Z,102681.50
2023-02-27T22:41:46.897Z,102700.69
2023-02-27T22:44:32.838Z,102705.06
2023-02-27T22:47:18.600Z,102704.22
2023-02-27T22:50:06.063Z,102706.81
2023-02-27T22:52:51.973Z,102697.31
2023-02-27T22:55:37.805Z,102706.81
2023-02-27T22:58:23.565Z,102715.53
2023-02-27T23:01:09.968Z,102723.34
2023-02-27T23:03:57.324Z,102728.53
2023-02-27T23:06:46.081Z,102732.00
2023-02-27T23:09:31.719Z,102738.91
2023-02-27T23:12:17.404Z,102752.88
2023-02-27T23:15:03.240Z,102758.94
2023-02-27T23:17:57.787Z,102756.38
2023-02-27T23:20:44.197Z,102768.53
2023-02-27T23:23:31.382Z,102773.81
2023-02-27T23:26:17.131Z,102780.78
2023-02-27T23:29:02.923Z,102783.38
2023-02-27T23:31:48.916Z,102783.41
2023-02-27T23:34:48.773Z,102786.06
2023-02-27T23:37:35.485Z,102794.81
2023-02-27T23:40:23.009Z,102794.94
2023-02-27T23:43:08.923Z,102801.91
2023-02-27T23:45:54.790Z,102801.09
2023-02-27T23:48:41.240Z,102808.13
2023-02-27T23:51:29.793Z,102804.69
2023-02-27T23:54:16.366Z,102809.06
2023-02-27T23:57:03.408Z,102818.69
2023-02-27T23:59:49.259Z,102820.44
